sensor_id;sensor_type;location;lat;lon;timestamp;P1;durP1;ratioP1;P2;durP2;ratioP2
22754;SDS011;11544;42.020;23.094;2023-08-20T00:03:43;4.68;;;3.58;;
22754;SDS011;11544;42.020;23.094;2023-08-20T00:06:12;5.20;;;3.60;;
22754;SDS011;11544;42.020;23.094;2023-08-20T00:08:40;4.75;;;3.78;;
22754;SDS011;11544;42.020;23.094;2023-08-20T00:11:07;6.32;;;3.80;;
22754;SDS011;11544;42.020;23.094;2023-08-20T00:13:34;5.18;;;3.97;;
22754;SDS011;11544;42.020;23.094;2023-08-20T00:16:02;6.85;;;3.95;;
22754;SDS011;11544;42.020;23.094;2023-08-20T00:18:29;5.63;;;3.60;;
22754;SDS011;11544;42.020;23.094;2023-08-20T00:20:57;6.07;;;3.63;;
22754;SDS011;11544;42.020;23.094;2023-08-20T00:23:25;6.00;;;4.00;;
22754;SDS011;11544;42.020;23.094;2023-08-20T00:25:53;6.22;;;3.80;;
22754;SDS011;11544;42.020;23.094;2023-08-20T00:28:20;8.02;;;4.05;;
22754;SDS011;11544;42.020;23.094;2023-08-20T00:30:47;7.88;;;3.95;;
22754;SDS011;11544;42.020;23.094;2023-08-20T00:33:15;7.85;;;4.28;;
22754;SDS011;11544;42.020;23.094;2023-08-20T00:35:42;6.70;;;4.05;;
22754;SDS011;11544;42.020;23.094;2023-08-20T00:38:09;5.05;;;4.10;;
22754;SDS011;11544;42.020;23.094;2023-08-20T00:40:35;6.15;;;3.83;;
22754;SDS011;11544;42.020;23.094;2023-08-20T00:43:03;5.60;;;4.00;;
22754;SDS011;11544;42.020;23.094;2023-08-20T00:45:29;4.80;;;3.57;;
22754;SDS011;11544;42.020;23.094;2023-08-20T00:48:16;4.07;;;3.58;;
22754;SDS011;11544;42.020;23.094;2023-08-20T00:50:43;5.70;;;3.67;;
22754;SDS011;11544;42.020;23.094;2023-08-20T00:53:10;6.22;;;4.00;;
22754;SDS011;11544;42.020;23.094;2023-08-20T00:55:40;5.35;;;4.03;;
22754;SDS011;11544;42.020;23.094;2023-08-20T00:58:10;5.30;;;3.85;;
22754;SDS011;11544;42.020;23.094;2023-08-20T01:00:37;7.78;;;3.95;;
22754;SDS011;11544;42.020;23.094;2023-08-20T01:03:04;5.85;;;4.10;;
22754;SDS011;11544;42.020;23.094;2023-08-20T01:05:32;5.93;;;3.90;;
22754;SDS011;11544;42.020;23.094;2023-08-20T01:08:15;7.32;;;4.25;;
22754;SDS011;11544;42.020;23.094;2023-08-20T01:11:37;8.82;;;4.40;;
22754;SDS011;11544;42.020;23.094;2023-08-20T01:13:47;6.90;;;3.97;;
22754;SDS011;11544;42.020;23.094;2023-08-20T01:16:14;7.65;;;4.45;;
22754;SDS011;11544;42.020;23.094;2023-08-20T01:18:41;6.45;;;4.35;;
22754;SDS011;11544;42.020;23.094;2023-08-20T01:21:16;6.03;;;4.10;;
22754;SDS011;11544;42.020;23.094;2023-08-20T01:24:10;5.72;;;4.57;;
22754;SDS011;11544;42.020;23.094;2023-08-20T01:29:21;7.43;;;4.55;;
22754;SDS011;11544;42.020;23.094;2023-08-20T01:31:48;7.78;;;4.40;;
22754;SDS011;11544;42.020;23.094;2023-08-20T01:34:16;5.28;;;4.00;;
22754;SDS011;11544;42.020;23.094;2023-08-20T01:36:43;6.15;;;4.78;;
22754;SDS011;11544;42.020;23.094;2023-08-20T01:39:15;7.72;;;4.68;;
22754;SDS011;11544;42.020;23.094;2023-08-20T01:41:43;8.95;;;4.78;;
22754;SDS011;11544;42.020;23.094;2023-08-20T01:44:10;7.05;;;4.72;;
22754;SDS011;11544;42.020;23.094;2023-08-20T01:46:49;5.85;;;3.88;;
22754;SDS011;11544;42.020;23.094;2023-08-20T01:49:16;4.53;;;3.92;;
22754;SDS011;11544;42.020;23.094;2023-08-20T01:51:51;5.60;;;3.90;;
22754;SDS011;11544;42.020;23.094;2023-08-20T01:54:18;6.93;;;4.38;;
22754;SDS011;11544;42.020;23.094;2023-08-20T01:56:47;5.82;;;4.22;;
22754;SDS011;11544;42.020;23.094;2023-08-20T01:59:13;5.07;;;4.00;;
22754;SDS011;11544;42.020;23.094;2023-08-20T02:01:40;5.63;;;4.45;;
22754;SDS011;11544;42.020;23.094;2023-08-20T02:04:07;6.67;;;4.20;;
22754;SDS011;11544;42.020;23.094;2023-08-20T02:06:34;6.10;;;4.10;;
22754;SDS011;11544;42.020;23.094;2023-08-20T02:09:01;5.63;;;3.93;;
22754;SDS011;11544;42.020;23.094;2023-08-20T02:11:29;6.35;;;4.32;;
22754;SDS011;11544;42.020;23.094;2023-08-20T02:13:57;6.10;;;4.03;;
22754;SDS011;11544;42.020;23.094;2023-08-20T02:16:24;5.50;;;4.00;;
22754;SDS011;11544;42.020;23.094;2023-08-20T02:18:51;6.78;;;4.00;;
22754;SDS011;11544;42.020;23.094;2023-08-20T02:21:17;5.63;;;3.90;;
22754;SDS011;11544;42.020;23.094;2023-08-20T02:23:44;5.93;;;4.30;;
22754;SDS011;11544;42.020;23.094;2023-08-20T02:26:11;7.10;;;4.47;;
22754;SDS011;11544;42.020;23.094;2023-08-20T02:28:38;5.80;;;4.25;;
22754;SDS011;11544;42.020;23.094;2023-08-20T02:31:05;6.10;;;4.20;;
22754;SDS011;11544;42.020;23.094;2023-08-20T02:33:32;5.70;;;4.30;;
22754;SDS011;11544;42.020;23.094;2023-08-20T02:36:02;6.20;;;4.50;;
22754;SDS011;11544;42.020;23.094;2023-08-20T02:38:30;5.43;;;4.50;;
22754;SDS011;11544;42.020;23.094;2023-08-20T02:40:57;4.87;;;4.00;;
22754;SDS011;11544;42.020;23.094;2023-08-20T02:43:24;6.57;;;4.47;;
22754;SDS011;11544;42.020;23.094;2023-08-20T02:45:51;8.52;;;4.82;;
22754;SDS011;11544;42.020;23.094;2023-08-20T02:48:18;7.35;;;4.60;;
22754;SDS011;11544;42.020;23.094;2023-08-20T02:50:46;8.20;;;4.60;;
22754;SDS011;11544;42.020;23.094;2023-08-20T02:53:12;9.00;;;4.68;;
22754;SDS011;11544;42.020;23.094;2023-08-20T02:55:39;9.18;;;4.60;;
22754;SDS011;11544;42.020;23.094;2023-08-20T02:58:06;8.00;;;4.35;;
22754;SDS011;11544;42.020;23.094;2023-08-20T03:00:34;6.82;;;4.43;;
22754;SDS011;11544;42.020;23.094;2023-08-20T03:03:01;7.53;;;4.57;;
22754;SDS011;11544;42.020;23.094;2023-08-20T03:05:31;6.47;;;4.40;;
22754;SDS011;11544;42.020;23.094;2023-08-20T03:07:58;6.20;;;4.40;;
22754;SDS011;11544;42.020;23.094;2023-08-20T03:10:26;5.53;;;4.22;;
22754;SDS011;11544;42.020;23.094;2023-08-20T03:12:53;6.85;;;4.40;;
22754;SDS011;11544;42.020;23.094;2023-08-20T03:15:20;7.30;;;4.50;;
22754;SDS011;11544;42.020;23.094;2023-08-20T03:17:47;7.28;;;4.70;;
22754;SDS011;11544;42.020;23.094;2023-08-20T03:20:14;6.50;;;4.50;;
22754;SDS011;11544;42.020;23.094;2023-08-20T03:22:41;7.75;;;4.32;;
22754;SDS011;11544;42.020;23.094;2023-08-20T03:25:08;5.43;;;4.85;;
22754;SDS011;11544;42.020;23.094;2023-08-20T03:27:35;6.40;;;4.60;;
22754;SDS011;11544;42.020;23.094;2023-08-20T03:30:03;8.45;;;4.28;;
22754;SDS011;11544;42.020;23.094;2023-08-20T03:32:31;6.47;;;4.50;;
22754;SDS011;11544;42.020;23.094;2023-08-20T03:34:58;5.43;;;4.20;;
22754;SDS011;11544;42.020;23.094;2023-08-20T03:37:25;5.75;;;4.47;;
22754;SDS011;11544;42.020;23.094;2023-08-20T03:39:52;4.85;;;4.35;;
22754;SDS011;11544;42.020;23.094;2023-08-20T03:42:19;7.47;;;4.47;;
22754;SDS011;11544;42.020;23.094;2023-08-20T03:44:46;6.90;;;4.65;;
22754;SDS011;11544;42.020;23.094;2023-08-20T03:47:12;5.85;;;4.38;;
22754;SDS011;11544;42.020;23.094;2023-08-20T03:49:39;8.20;;;4.60;;
22754;SDS011;11544;42.020;23.094;2023-08-20T03:52:06;5.25;;;4.75;;
22754;SDS011;11544;42.020;23.094;2023-08-20T03:54:33;5.97;;;4.32;;
22754;SDS011;11544;42.020;23.094;2023-08-20T03:57:00;6.00;;;4.40;;
22754;SDS011;11544;42.020;23.094;2023-08-20T03:59:27;7.43;;;5.43;;
22754;SDS011;11544;42.020;23.094;2023-08-20T04:01:54;8.80;;;5.00;;
22754;SDS011;11544;42.020;23.094;2023-08-20T04:04:21;5.80;;;4.78;;
22754;SDS011;11544;42.020;23.094;2023-08-20T04:06:48;5.30;;;4.60;;
22754;SDS011;11544;42.020;23.094;2023-08-20T04:09:15;6.07;;;4.55;;
22754;SDS011;11544;42.020;23.094;2023-08-20T04:11:43;5.80;;;4.87;;
22754;SDS011;11544;42.020;23.094;2023-08-20T04:14:09;5.80;;;4.50;;
22754;SDS011;11544;42.020;23.094;2023-08-20T04:16:37;7.15;;;4.97;;
22754;SDS011;11544;42.020;23.094;2023-08-20T04:19:03;7.07;;;4.60;;
22754;SDS011;11544;42.020;23.094;2023-08-20T04:21:31;6.43;;;4.68;;
22754;SDS011;11544;42.020;23.094;2023-08-20T04:23:57;6.93;;;4.70;;
22754;SDS011;11544;42.020;23.094;2023-08-20T04:26:24;7.97;;;4.50;;
22754;SDS011;11544;42.020;23.094;2023-08-20T04:28:51;7.60;;;4.65;;
22754;SDS011;11544;42.020;23.094;2023-08-20T04:31:18;7.10;;;4.93;;
22754;SDS011;11544;42.020;23.094;2023-08-20T04:33:45;5.50;;;4.50;;
22754;SDS011;11544;42.020;23.094;2023-08-20T04:36:12;9.68;;;5.32;;
22754;SDS011;11544;42.020;23.094;2023-08-20T04:38:39;6.70;;;4.68;;
22754;SDS011;11544;42.020;23.094;2023-08-20T04:41:06;6.97;;;4.60;;
22754;SDS011;11544;42.020;23.094;2023-08-20T04:43:32;7.30;;;5.43;;
22754;SDS011;11544;42.020;23.094;2023-08-20T04:45:59;5.95;;;4.53;;
22754;SDS011;11544;42.020;23.094;2023-08-20T04:48:26;5.82;;;4.50;;
22754;SDS011;11544;42.020;23.094;2023-08-20T04:50:53;7.70;;;5.00;;
22754;SDS011;11544;42.020;23.094;2023-08-20T04:53:20;6.10;;;4.50;;
22754;SDS011;11544;42.020;23.094;2023-08-20T04:55:47;5.87;;;4.60;;
22754;SDS011;11544;42.020;23.094;2023-08-20T04:58:13;7.90;;;5.03;;
22754;SDS011;11544;42.020;23.094;2023-08-20T05:00:43;8.67;;;5.53;;
22754;SDS011;11544;42.020;23.094;2023-08-20T05:03:37;6.88;;;5.18;;
22754;SDS011;11544;42.020;23.094;2023-08-20T05:06:04;8.00;;;5.60;;
22754;SDS011;11544;42.020;23.094;2023-08-20T05:08:32;8.45;;;5.50;;
22754;SDS011;11544;42.020;23.094;2023-08-20T05:10:59;10.37;;;5.60;;
22754;SDS011;11544;42.020;23.094;2023-08-20T05:13:40;15.73;;;6.20;;
22754;SDS011;11544;42.020;23.094;2023-08-20T05:16:07;9.00;;;5.95;;
22754;SDS011;11544;42.020;23.094;2023-08-20T05:18:34;8.25;;;6.20;;
22754;SDS011;11544;42.020;23.094;2023-08-20T05:21:01;11.15;;;5.90;;
22754;SDS011;11544;42.020;23.094;2023-08-20T05:23:40;9.77;;;6.22;;
22754;SDS011;11544;42.020;23.094;2023-08-20T05:26:07;8.57;;;5.68;;
22754;SDS011;11544;42.020;23.094;2023-08-20T05:28:34;9.52;;;6.70;;
22754;SDS011;11544;42.020;23.094;2023-08-20T05:31:01;9.13;;;6.30;;
22754;SDS011;11544;42.020;23.094;2023-08-20T05:33:28;10.60;;;5.97;;
22754;SDS011;11544;42.020;23.094;2023-08-20T05:35:55;10.88;;;7.18;;
22754;SDS011;11544;42.020;23.094;2023-08-20T05:38:24;10.13;;;6.47;;
22754;SDS011;11544;42.020;23.094;2023-08-20T05:40:51;7.70;;;5.67;;
22754;SDS011;11544;42.020;23.094;2023-08-20T05:43:18;11.25;;;6.40;;
22754;SDS011;11544;42.020;23.094;2023-08-20T05:45:45;12.18;;;6.28;;
22754;SDS011;11544;42.020;23.094;2023-08-20T05:48:25;16.20;;;6.43;;
22754;SDS011;11544;42.020;23.094;2023-08-20T05:50:52;9.45;;;6.53;;
22754;SDS011;11544;42.020;23.094;2023-08-20T05:53:20;13.30;;;6.15;;
22754;SDS011;11544;42.020;23.094;2023-08-20T05:55:48;10.38;;;6.45;;
22754;SDS011;11544;42.020;23.094;2023-08-20T05:58:16;13.02;;;6.13;;
22754;SDS011;11544;42.020;23.094;2023-08-20T06:00:43;18.33;;;6.30;;
22754;SDS011;11544;42.020;23.094;2023-08-20T06:03:09;8.13;;;5.72;;
22754;SDS011;11544;42.020;23.094;2023-08-20T06:05:36;8.57;;;5.70;;
22754;SDS011;11544;42.020;23.094;2023-08-20T06:08:03;8.82;;;5.53;;
22754;SDS011;11544;42.020;23.094;2023-08-20T06:10:45;12.02;;;6.15;;
22754;SDS011;11544;42.020;23.094;2023-08-20T06:13:12;8.10;;;5.53;;
22754;SDS011;11544;42.020;23.094;2023-08-20T06:15:39;8.50;;;5.37;;
22754;SDS011;11544;42.020;23.094;2023-08-20T06:18:06;9.40;;;5.70;;
22754;SDS011;11544;42.020;23.094;2023-08-20T06:20:35;10.57;;;5.95;;
22754;SDS011;11544;42.020;23.094;2023-08-20T06:23:02;11.35;;;5.90;;
22754;SDS011;11544;42.020;23.094;2023-08-20T06:25:52;9.20;;;6.05;;
22754;SDS011;11544;42.020;23.094;2023-08-20T06:28:20;11.13;;;5.78;;
22754;SDS011;11544;42.020;23.094;2023-08-20T06:30:49;10.02;;;5.85;;
22754;SDS011;11544;42.020;23.094;2023-08-20T06:33:16;10.00;;;5.50;;
22754;SDS011;11544;42.020;23.094;2023-08-20T06:35:47;8.93;;;6.05;;
22754;SDS011;11544;42.020;23.094;2023-08-20T06:38:14;6.82;;;5.53;;
22754;SDS011;11544;42.020;23.094;2023-08-20T06:40:41;8.90;;;6.00;;
22754;SDS011;11544;42.020;23.094;2023-08-20T06:43:08;8.88;;;5.65;;
22754;SDS011;11544;42.020;23.094;2023-08-20T06:45:35;9.00;;;6.00;;
22754;SDS011;11544;42.020;23.094;2023-08-20T06:48:02;9.45;;;5.70;;
22754;SDS011;11544;42.020;23.094;2023-08-20T06:50:28;9.43;;;6.07;;
22754;SDS011;11544;42.020;23.094;2023-08-20T06:52:56;10.38;;;5.72;;
22754;SDS011;11544;42.020;23.094;2023-08-20T06:55:22;9.00;;;5.70;;
22754;SDS011;11544;42.020;23.094;2023-08-20T06:58:07;8.52;;;5.93;;
22754;SDS011;11544;42.020;23.094;2023-08-20T07:00:44;9.00;;;6.63;;
22754;SDS011;11544;42.020;23.094;2023-08-20T07:03:11;11.17;;;6.77;;
22754;SDS011;11544;42.020;23.094;2023-08-20T07:08:31;7.90;;;5.85;;
22754;SDS011;11544;42.020;23.094;2023-08-20T07:27:10;10.17;;;6.33;;
22754;SDS011;11544;42.020;23.094;2023-08-20T07:29:39;9.43;;;5.60;;
22754;SDS011;11544;42.020;23.094;2023-08-20T07:32:07;8.05;;;5.88;;
22754;SDS011;11544;42.020;23.094;2023-08-20T07:34:34;10.17;;;6.40;;
22754;SDS011;11544;42.020;23.094;2023-08-20T07:37:02;10.50;;;6.30;;
22754;SDS011;11544;42.020;23.094;2023-08-20T07:39:30;8.05;;;5.95;;
22754;SDS011;11544;42.020;23.094;2023-08-20T07:47:21;7.25;;;5.78;;
22754;SDS011;11544;42.020;23.094;2023-08-20T07:49:48;7.10;;;5.55;;
22754;SDS011;11544;42.020;23.094;2023-08-20T07:52:15;8.52;;;5.90;;
22754;SDS011;11544;42.020;23.094;2023-08-20T07:54:43;9.02;;;6.32;;
22754;SDS011;11544;42.020;23.094;2023-08-20T07:57:11;10.07;;;6.30;;
22754;SDS011;11544;42.020;23.094;2023-08-20T07:59:41;10.48;;;6.55;;
22754;SDS011;11544;42.020;23.094;2023-08-20T08:02:08;10.65;;;6.05;;
22754;SDS011;11544;42.020;23.094;2023-08-20T08:04:35;6.43;;;5.67;;
22754;SDS011;11544;42.020;23.094;2023-08-20T08:07:02;8.55;;;6.03;;
22754;SDS011;11544;42.020;23.094;2023-08-20T08:09:33;8.95;;;5.95;;
22754;SDS011;11544;42.020;23.094;2023-08-20T08:12:05;12.63;;;6.50;;
22754;SDS011;11544;42.020;23.094;2023-08-20T08:14:32;11.30;;;6.07;;
22754;SDS011;11544;42.020;23.094;2023-08-20T08:16:59;10.10;;;5.90;;
22754;SDS011;11544;42.020;23.094;2023-08-20T08:19:35;8.82;;;5.88;;
22754;SDS011;11544;42.020;23.094;2023-08-20T08:22:12;11.38;;;6.10;;
22754;SDS011;11544;42.020;23.094;2023-08-20T08:24:50;7.97;;;6.67;;
22754;SDS011;11544;42.020;23.094;2023-08-20T08:27:16;10.07;;;6.07;;
22754;SDS011;11544;42.020;23.094;2023-08-20T08:29:44;12.52;;;6.88;;
22754;SDS011;11544;42.020;23.094;2023-08-20T08:32:11;10.38;;;7.22;;
22754;SDS011;11544;42.020;23.094;2023-08-20T08:34:38;10.63;;;6.87;;
22754;SDS011;11544;42.020;23.094;2023-08-20T08:37:05;9.18;;;6.28;;
22754;SDS011;11544;42.020;23.094;2023-08-20T08:39:32;12.65;;;6.53;;
22754;SDS011;11544;42.020;23.094;2023-08-20T08:42:03;11.43;;;6.60;;
22754;SDS011;11544;42.020;23.094;2023-08-20T08:44:32;10.15;;;6.05;;
22754;SDS011;11544;42.020;23.094;2023-08-20T08:47:02;8.73;;;5.63;;
22754;SDS011;11544;42.020;23.094;2023-08-20T08:49:33;9.27;;;5.70;;
22754;SDS011;11544;42.020;23.094;2023-08-20T08:52:01;12.88;;;6.50;;
22754;SDS011;11544;42.020;23.094;2023-08-20T08:54:32;8.73;;;5.90;;
22754;SDS011;11544;42.020;23.094;2023-08-20T08:56:59;8.43;;;6.40;;
22754;SDS011;11544;42.020;23.094;2023-08-20T08:59:26;8.18;;;5.88;;
22754;SDS011;11544;42.020;23.094;2023-08-20T09:01:54;10.93;;;6.33;;
22754;SDS011;11544;42.020;23.094;2023-08-20T09:04:23;8.88;;;6.32;;
22754;SDS011;11544;42.020;23.094;2023-08-20T09:06:51;8.18;;;6.13;;
22754;SDS011;11544;42.020;23.094;2023-08-20T09:09:21;9.27;;;5.88;;
22754;SDS011;11544;42.020;23.094;2023-08-20T09:11:48;7.10;;;4.82;;
22754;SDS011;11544;42.020;23.094;2023-08-20T09:14:33;5.30;;;4.30;;
22754;SDS011;11544;42.020;23.094;2023-08-20T09:17:01;6.75;;;4.28;;
22754;SDS011;11544;42.020;23.094;2023-08-20T09:19:29;4.60;;;4.20;;
22754;SDS011;11544;42.020;23.094;2023-08-20T09:21:59;5.53;;;4.00;;
22754;SDS011;11544;42.020;23.094;2023-08-20T09:24:26;5.32;;;4.07;;
22754;SDS011;11544;42.020;23.094;2023-08-20T09:27:11;7.57;;;4.47;;
22754;SDS011;11544;42.020;23.094;2023-08-20T09:29:46;5.50;;;4.07;;
22754;SDS011;11544;42.020;23.094;2023-08-20T09:32:15;4.60;;;3.67;;
22754;SDS011;11544;42.020;23.094;2023-08-20T09:34:49;6.90;;;3.80;;
22754;SDS011;11544;42.020;23.094;2023-08-20T09:37:23;5.10;;;4.05;;
22754;SDS011;11544;42.020;23.094;2023-08-20T09:39:50;4.55;;;3.70;;
22754;SDS011;11544;42.020;23.094;2023-08-20T09:42:17;12.85;;;4.13;;
22754;SDS011;11544;42.020;23.094;2023-08-20T09:44:45;3.90;;;3.40;;
22754;SDS011;11544;42.020;23.094;2023-08-20T09:47:17;5.80;;;3.50;;
22754;SDS011;11544;42.020;23.094;2023-08-20T09:49:48;5.28;;;3.13;;
22754;SDS011;11544;42.020;23.094;2023-08-20T09:52:25;5.28;;;3.40;;
22754;SDS011;11544;42.020;23.094;2023-08-20T09:57:36;4.93;;;3.15;;
22754;SDS011;11544;42.020;23.094;2023-08-20T10:00:04;3.22;;;2.72;;
22754;SDS011;11544;42.020;23.094;2023-08-20T10:02:39;5.30;;;3.30;;
22754;SDS011;11544;42.020;23.094;2023-08-20T10:05:08;6.68;;;3.20;;
22754;SDS011;11544;42.020;23.094;2023-08-20T10:07:36;5.55;;;3.53;;
22754;SDS011;11544;42.020;23.094;2023-08-20T10:10:04;6.07;;;3.20;;
22754;SDS011;11544;42.020;23.094;2023-08-20T10:12:33;5.87;;;3.23;;
22754;SDS011;11544;42.020;23.094;2023-08-20T10:15:01;5.53;;;3.33;;
22754;SDS011;11544;42.020;23.094;2023-08-20T10:17:29;4.00;;;3.17;;
22754;SDS011;11544;42.020;23.094;2023-08-20T10:19:57;3.10;;;2.80;;
22754;SDS011;11544;42.020;23.094;2023-08-20T10:22:32;4.60;;;2.97;;
22754;SDS011;11544;42.020;23.094;2023-08-20T10:25:10;5.18;;;3.10;;
22754;SDS011;11544;42.020;23.094;2023-08-20T10:27:41;3.80;;;2.75;;
22754;SDS011;11544;42.020;23.094;2023-08-20T10:30:10;6.75;;;3.53;;
22754;SDS011;11544;42.020;23.094;2023-08-20T10:38:14;5.30;;;3.30;;
22754;SDS011;11544;42.020;23.094;2023-08-20T10:40:58;3.67;;;2.78;;
22754;SDS011;11544;42.020;23.094;2023-08-20T10:46:08;4.50;;;2.60;;
22754;SDS011;11544;42.020;23.094;2023-08-20T10:48:43;5.35;;;2.65;;
22754;SDS011;11544;42.020;23.094;2023-08-20T10:51:27;8.80;;;2.80;;
22754;SDS011;11544;42.020;23.094;2023-08-20T10:56:47;4.03;;;2.47;;
22754;SDS011;11544;42.020;23.094;2023-08-20T11:01:55;4.45;;;2.67;;
22754;SDS011;11544;42.020;23.094;2023-08-20T11:04:33;4.38;;;2.75;;
22754;SDS011;11544;42.020;23.094;2023-08-20T11:07:11;8.20;;;2.50;;
22754;SDS011;11544;42.020;23.094;2023-08-20T11:09:51;4.65;;;2.10;;
22754;SDS011;11544;42.020;23.094;2023-08-20T11:12:20;8.50;;;2.80;;
22754;SDS011;11544;42.020;23.094;2023-08-20T11:14:51;5.50;;;2.70;;
22754;SDS011;11544;42.020;23.094;2023-08-20T11:17:22;3.05;;;2.45;;
22754;SDS011;11544;42.020;23.094;2023-08-20T11:19:49;3.92;;;2.60;;
22754;SDS011;11544;42.020;23.094;2023-08-20T11:22:33;5.93;;;2.60;;
22754;SDS011;11544;42.020;23.094;2023-08-20T11:25:00;4.82;;;2.67;;
22754;SDS011;11544;42.020;23.094;2023-08-20T11:27:27;4.93;;;2.53;;
22754;SDS011;11544;42.020;23.094;2023-08-20T11:29:54;4.30;;;2.55;;
22754;SDS011;11544;42.020;23.094;2023-08-20T11:32:23;5.60;;;2.47;;
22754;SDS011;11544;42.020;23.094;2023-08-20T11:35:10;3.83;;;2.58;;
22754;SDS011;11544;42.020;23.094;2023-08-20T11:37:42;3.70;;;2.50;;
22754;SDS011;11544;42.020;23.094;2023-08-20T11:40:11;3.65;;;2.40;;
22754;SDS011;11544;42.020;23.094;2023-08-20T11:42:41;4.50;;;2.43;;
22754;SDS011;11544;42.020;23.094;2023-08-20T11:45:09;3.47;;;2.30;;
22754;SDS011;11544;42.020;23.094;2023-08-20T11:47:40;5.10;;;2.60;;
22754;SDS011;11544;42.020;23.094;2023-08-20T11:50:09;3.07;;;2.43;;
22754;SDS011;11544;42.020;23.094;2023-08-20T11:52:40;3.80;;;2.50;;
22754;SDS011;11544;42.020;23.094;2023-08-20T11:55:08;3.50;;;2.28;;
22754;SDS011;11544;42.020;23.094;2023-08-20T11:57:36;2.80;;;2.35;;
22754;SDS011;11544;42.020;23.094;2023-08-20T12:00:03;3.10;;;2.00;;
22754;SDS011;11544;42.020;23.094;2023-08-20T12:02:35;5.00;;;2.30;;
22754;SDS011;11544;42.020;23.094;2023-08-20T12:05:06;3.78;;;2.20;;
22754;SDS011;11544;42.020;23.094;2023-08-20T12:07:33;2.58;;;2.00;;
22754;SDS011;11544;42.020;23.094;2023-08-20T12:10:20;4.85;;;2.28;;
22754;SDS011;11544;42.020;23.094;2023-08-20T12:12:49;3.50;;;2.25;;
22754;SDS011;11544;42.020;23.094;2023-08-20T12:15:17;4.50;;;2.50;;
22754;SDS011;11544;42.020;23.094;2023-08-20T12:17:58;4.95;;;2.30;;
22754;SDS011;11544;42.020;23.094;2023-08-20T12:20:32;5.82;;;2.63;;
22754;SDS011;11544;42.020;23.094;2023-08-20T12:23:05;3.90;;;2.17;;
22754;SDS011;11544;42.020;23.094;2023-08-20T12:25:34;3.40;;;2.40;;
22754;SDS011;11544;42.020;23.094;2023-08-20T12:28:02;2.53;;;2.17;;
22754;SDS011;11544;42.020;23.094;2023-08-20T12:30:31;3.57;;;2.37;;
22754;SDS011;11544;42.020;23.094;2023-08-20T12:33:04;2.35;;;2.15;;
22754;SDS011;11544;42.020;23.094;2023-08-20T12:35:32;2.97;;;2.20;;
22754;SDS011;11544;42.020;23.094;2023-08-20T12:38:00;4.43;;;2.35;;
22754;SDS011;11544;42.020;23.094;2023-08-20T12:40:27;3.93;;;2.23;;
22754;SDS011;11544;42.020;23.094;2023-08-20T12:42:54;5.63;;;2.40;;
22754;SDS011;11544;42.020;23.094;2023-08-20T12:45:21;4.07;;;2.38;;
22754;SDS011;11544;42.020;23.094;2023-08-20T12:47:48;3.83;;;2.22;;
22754;SDS011;11544;42.020;23.094;2023-08-20T12:50:15;4.13;;;2.40;;
22754;SDS011;11544;42.020;23.094;2023-08-20T12:52:42;3.17;;;2.20;;
22754;SDS011;11544;42.020;23.094;2023-08-20T12:55:09;2.80;;;2.50;;
22754;SDS011;11544;42.020;23.094;2023-08-20T12:57:41;4.07;;;2.50;;
22754;SDS011;11544;42.020;23.094;2023-08-20T13:00:20;3.08;;;2.20;;
22754;SDS011;11544;42.020;23.094;2023-08-20T13:02:48;4.03;;;2.50;;
22754;SDS011;11544;42.020;23.094;2023-08-20T13:05:15;3.50;;;2.45;;
22754;SDS011;11544;42.020;23.094;2023-08-20T13:07:43;3.38;;;2.30;;
22754;SDS011;11544;42.020;23.094;2023-08-20T13:10:10;4.88;;;2.30;;
22754;SDS011;11544;42.020;23.094;2023-08-20T13:12:41;3.65;;;2.30;;
22754;SDS011;11544;42.020;23.094;2023-08-20T13:15:10;5.53;;;2.42;;
22754;SDS011;11544;42.020;23.094;2023-08-20T13:17:37;4.15;;;2.40;;
22754;SDS011;11544;42.020;23.094;2023-08-20T13:20:05;4.40;;;2.13;;
22754;SDS011;11544;42.020;23.094;2023-08-20T13:22:34;2.80;;;2.42;;
22754;SDS011;11544;42.020;23.094;2023-08-20T13:25:00;2.83;;;2.42;;
22754;SDS011;11544;42.020;23.094;2023-08-20T13:27:27;5.00;;;2.50;;
22754;SDS011;11544;42.020;23.094;2023-08-20T13:29:54;3.90;;;2.33;;
22754;SDS011;11544;42.020;23.094;2023-08-20T13:32:22;4.75;;;2.15;;
22754;SDS011;11544;42.020;23.094;2023-08-20T13:34:49;4.37;;;2.33;;
22754;SDS011;11544;42.020;23.094;2023-08-20T13:37:16;3.63;;;2.40;;
22754;SDS011;11544;42.020;23.094;2023-08-20T13:39:43;3.88;;;2.50;;
22754;SDS011;11544;42.020;23.094;2023-08-20T13:42:10;3.35;;;2.28;;
22754;SDS011;11544;42.020;23.094;2023-08-20T13:44:37;4.55;;;2.40;;
22754;SDS011;11544;42.020;23.094;2023-08-20T13:47:07;3.50;;;2.42;;
22754;SDS011;11544;42.020;23.094;2023-08-20T13:49:49;3.45;;;2.60;;
22754;SDS011;11544;42.020;23.094;2023-08-20T13:52:16;2.88;;;2.65;;
22754;SDS011;11544;42.020;23.094;2023-08-20T13:54:43;4.47;;;2.63;;
22754;SDS011;11544;42.020;23.094;2023-08-20T13:57:10;4.50;;;2.50;;
22754;SDS011;11544;42.020;23.094;2023-08-20T13:59:41;2.65;;;2.45;;
22754;SDS011;11544;42.020;23.094;2023-08-20T14:04:58;3.15;;;2.60;;
22754;SDS011;11544;42.020;23.094;2023-08-20T14:07:25;6.80;;;2.85;;
22754;SDS011;11544;42.020;23.094;2023-08-20T14:09:52;3.78;;;2.63;;
22754;SDS011;11544;42.020;23.094;2023-08-20T14:12:26;3.70;;;2.80;;
22754;SDS011;11544;42.020;23.094;2023-08-20T14:14:57;3.70;;;2.78;;
22754;SDS011;11544;42.020;23.094;2023-08-20T14:17:28;5.13;;;2.73;;
22754;SDS011;11544;42.020;23.094;2023-08-20T14:19:57;3.90;;;2.43;;
22754;SDS011;11544;42.020;23.094;2023-08-20T14:22:24;3.17;;;2.50;;
22754;SDS011;11544;42.020;23.094;2023-08-20T14:24:52;4.35;;;2.75;;
22754;SDS011;11544;42.020;23.094;2023-08-20T14:27:20;4.95;;;2.45;;
22754;SDS011;11544;42.020;23.094;2023-08-20T14:29:49;4.10;;;2.95;;
22754;SDS011;11544;42.020;23.094;2023-08-20T14:32:16;3.58;;;2.72;;
22754;SDS011;11544;42.020;23.094;2023-08-20T14:34:45;3.53;;;2.45;;
22754;SDS011;11544;42.020;23.094;2023-08-20T14:37:12;4.53;;;2.75;;
22754;SDS011;11544;42.020;23.094;2023-08-20T14:39:40;3.63;;;2.75;;
22754;SDS011;11544;42.020;23.094;2023-08-20T14:42:07;3.83;;;2.60;;
22754;SDS011;11544;42.020;23.094;2023-08-20T14:44:34;4.30;;;2.78;;
22754;SDS011;11544;42.020;23.094;2023-08-20T14:47:01;6.78;;;3.05;;
22754;SDS011;11544;42.020;23.094;2023-08-20T14:49:31;7.93;;;2.97;;
22754;SDS011;11544;42.020;23.094;2023-08-20T14:51:58;4.78;;;2.75;;
22754;SDS011;11544;42.020;23.094;2023-08-20T14:54:47;3.47;;;2.55;;
22754;SDS011;11544;42.020;23.094;2023-08-20T15:10:38;6.22;;;2.85;;
22754;SDS011;11544;42.020;23.094;2023-08-20T15:13:05;4.97;;;2.72;;
22754;SDS011;11544;42.020;23.094;2023-08-20T15:42:55;6.22;;;3.65;;
22754;SDS011;11544;42.020;23.094;2023-08-20T15:45:23;6.15;;;3.33;;
22754;SDS011;11544;42.020;23.094;2023-08-20T15:47:50;4.88;;;3.40;;
22754;SDS011;11544;42.020;23.094;2023-08-20T15:50:17;5.50;;;3.55;;
22754;SDS011;11544;42.020;23.094;2023-08-20T15:52:44;5.18;;;3.53;;
22754;SDS011;11544;42.020;23.094;2023-08-20T15:55:11;5.45;;;3.47;;
22754;SDS011;11544;42.020;23.094;2023-08-20T15:57:38;7.87;;;3.90;;
22754;SDS011;11544;42.020;23.094;2023-08-20T16:00:05;7.47;;;3.90;;
22754;SDS011;11544;42.020;23.094;2023-08-20T16:02:32;5.60;;;3.90;;
22754;SDS011;11544;42.020;23.094;2023-08-20T16:04:59;5.97;;;3.47;;
22754;SDS011;11544;42.020;23.094;2023-08-20T16:07:26;7.82;;;4.10;;
22754;SDS011;11544;42.020;23.094;2023-08-20T16:09:53;4.63;;;4.00;;
22754;SDS011;11544;42.020;23.094;2023-08-20T16:12:20;6.38;;;4.30;;
22754;SDS011;11544;42.020;23.094;2023-08-20T16:14:46;5.25;;;4.10;;